Time;durP1;ratioP1;P1;durP2;ratioP2;P2;SDS_P1;SDS_P2;PMS_P1;PMS_P2;Temp;Humidity;BMP_temperature;BMP_pressure;BME280_temperature;BME280_humidity;BME280_pressure;Samples;Min_cycle;Max_cycle;Signal;HPM_P1;HPM_P2
2022/04/20 00:01:47;;;;;;;9.73;7.80;;;;;;;-1.67;100.00;96546.97;10541517;28;20653;-60
2022/04/20 00:06:47;;;;;;;10.70;6.73;;;;;;;-1.68;100.00;96559.91;10540941;28;20231;-57
2022/04/20 00:11:47;;;;;;;9.40;6.13;;;;;;;-1.71;100.00;96562.66;10541111;28;20321;-57
2022/04/20 00:16:48;;;;;;;9.33;7.70;;;;;;;-1.78;100.00;96563.88;10540317;28;20206;-53
2022/04/20 00:21:48;;;;;;;12.57;8.50;;;;;;;-1.91;100.00;96558.59;10540965;28;20191;-58
2022/04/20 00:26:49;;;;;;;9.13;6.97;;;;;;;-1.89;100.00;96564.47;10540143;28;20212;-56
2022/04/20 00:31:49;;;;;;;9.87;7.30;;;;;;;-1.91;100.00;96567.13;10522200;28;20272;-54
2022/04/20 00:36:52;;;;;;;12.73;8.00;;;;;;;-2.13;100.00;96564.88;10540120;28;20294;-57
2022/04/20 00:41:52;;;;;;;7.33;6.23;;;;;;;-1.99;100.00;96571.81;10539720;28;20564;-53
2022/04/20 00:46:53;;;;;;;12.67;7.50;;;;;;;-1.97;100.00;96575.16;10539800;28;20199;-56
2022/04/20 00:51:57;;;;;;;11.50;6.47;;;;;;;-1.98;100.00;96578.63;10539247;28;20210;-57
2022/04/20 00:56:58;;;;;;;7.70;5.77;;;;;;;-2.01;100.00;96566.78;10520520;28;20202;-55
2022/04/20 01:02:02;;;;;;;6.57;5.23;;;;;;;-2.00;100.00;96572.75;10519782;28;20835;-58
2022/04/20 01:07:15;;;;;;;11.43;6.40;;;;;;;-2.04;100.00;96574.63;10520058;28;20237;-59
2022/04/20 01:12:33;;;;;;;10.40;6.70;;;;;;;-2.03;100.00;96578.88;10520546;28;20214;-58
2022/04/20 01:17:56;;;;;;;8.63;6.03;;;;;;;-2.05;100.00;96592.69;10509257;28;20214;-55
2022/04/20 01:23:22;;;;;;;11.60;6.87;;;;;;;-2.11;100.00;96587.88;10537955;28;20696;-58
2022/04/20 01:28:52;;;;;;;10.20;7.63;;;;;;;-2.17;100.00;96574.47;10520119;28;20218;-58
2022/04/20 01:34:11;;;;;;;8.50;5.50;;;;;;;-2.13;100.00;96569.19;10522509;28;20218;-59
2022/04/20 01:39:11;;;;;;;10.03;6.53;;;;;;;-2.22;100.00;96565.34;10537610;28;20206;-60
2022/04/20 01:44:12;;;;;;;10.93;8.20;;;;;;;-2.24;100.00;96560.31;10519401;28;20719;-60
2022/04/20 01:49:20;;;;;;;10.73;7.57;;;;;;;-2.25;100.00;96553.53;10519405;28;20218;-60
2022/04/20 01:54:41;;;;;;;10.27;6.87;;;;;;;-2.29;100.00;96552.03;10522504;28;20286;-59
2022/04/20 01:59:53;;;;;;;10.27;7.37;;;;;;;-2.36;100.00;96548.13;10518340;28;20210;-57
2022/04/20 02:05:12;;;;;;;11.93;8.20;;;;;;;-2.41;100.00;96542.44;10537075;28;20244;-53
2022/04/20 02:10:15;;;;;;;11.77;7.03;;;;;;;-2.31;100.00;96535.91;10517097;28;20276;-54
2022/04/20 02:15:16;;;;;;;9.90;6.53;;;;;;;-2.28;100.00;96537.47;10517946;28;20190;-55
2022/04/20 02:20:48;;;;;;;11.53;8.30;;;;;;;-2.28;100.00;96540.88;10535922;28;20210;-56
2022/04/20 02:25:49;;;;;;;11.60;8.03;;;;;;;-2.27;100.00;96526.31;10517702;28;20193;-54
2022/04/20 02:30:49;;;;;;;11.77;8.33;;;;;;;-2.31;100.00;96529.94;10517620;28;20321;-55
2022/04/20 02:35:50;;;;;;;14.17;8.63;;;;;;;-2.44;100.00;96525.44;10517681;28;20183;-59
2022/04/20 02:40:51;;;;;;;10.87;8.33;;;;;;;-2.42;100.00;96525.38;10535476;28;20213;-55
2022/04/20 02:45:51;;;;;;;12.23;7.27;;;;;;;-2.41;100.00;96519.34;10535451;28;20187;-56
2022/04/20 02:50:52;;;;;;;13.13;8.27;;;;;;;-2.46;100.00;96522.16;10535155;28;20237;-58
2022/04/20 02:55:52;;;;;;;8.23;6.93;;;;;;;-2.46;100.00;96522.16;10517140;28;20190;-56
2022/04/20 03:00:52;;;;;;;11.73;9.07;;;;;;;-2.50;100.00;96523.22;10517105;28;20202;-57
2022/04/20 03:05:59;;;;;;;11.00;8.17;;;;;;;-2.53;100.00;96531.06;10483665;28;20205;-55
2022/04/20 03:11:00;;;;;;;13.87;8.73;;;;;;;-2.54;100.00;96524.31;10474995;28;20223;-59
2022/04/20 03:16:01;;;;;;;12.67;10.17;;;;;;;-2.51;100.00;96512.13;10474898;28;20191;-54
2022/04/20 03:21:02;;;;;;;15.10;9.73;;;;;;;-2.51;100.00;96530.09;10476425;28;20681;-59
2022/04/20 03:26:03;;;;;;;12.40;8.20;;;;;;;-2.58;100.00;96533.88;10482647;28;20190;-56
2022/04/20 03:31:32;;;;;;;13.10;9.30;;;;;;;-2.55;100.00;96531.16;10482351;28;20222;-54
2022/04/20 03:36:34;;;;;;;11.07;7.40;;;;;;;-2.53;100.00;96538.75;10465535;28;20214;-59
2022/04/20 03:41:34;;;;;;;12.77;8.13;;;;;;;-2.54;100.00;96545.63;10500062;28;20179;-58
2022/04/20 03:46:35;;;;;;;10.60;7.97;;;;;;;-2.57;100.00;96539.84;10481503;28;20215;-56
2022/04/20 03:51:36;;;;;;;7.70;5.43;;;;;;;-2.49;100.00;96547.97;10499534;28;20219;-56
2022/04/20 04:02:01;;;;;;;9.33;5.97;;;;;;;-2.48;100.00;96553.91;10481554;28;20198;-55
2022/04/20 04:07:04;;;;;;;16.50;10.10;;;;;;;-2.40;100.00;96544.09;10481689;28;20276;-59
2022/04/20 04:12:06;;;;;;;11.30;8.20;;;;;;;-2.27;100.00;96539.94;10484546;22;20301;-59
2022/04/20 04:17:08;;;;;;;17.13;11.10;;;;;;;-2.23;100.00;96548.34;10439380;28;20188;-59
2022/04/20 04:22:08;;;;;;;9.47;7.50;;;;;;;-2.07;100.00;96543.19;10473167;28;20207;-59
2022/04/20 04:27:13;;;;;;;18.10;10.53;;;;;;;-1.85;100.00;96561.66;10439451;28;20192;-59
2022/04/20 04:32:16;;;;;;;13.90;9.47;;;;;;;-1.74;100.00;96560.25;10454805;28;20220;-55
2022/04/20 04:37:16;;;;;;;16.03;10.33;;;;;;;-1.73;100.00;96561.88;10472548;28;20187;-55
2022/04/20 04:42:22;;;;;;;15.37;10.47;;;;;;;-1.70;100.00;96547.16;10455632;28;20207;-57
2022/04/20 04:52:41;;;;;;;13.63;9.23;;;;;;;-1.37;100.00;96558.19;10454993;28;20227;-55
2022/04/20 04:57:44;;;;;;;13.33;8.63;;;;;;;-1.19;100.00;96561.47;10471065;28;20222;-56
2022/04/20 05:02:45;;;;;;;16.83;10.60;;;;;;;-1.08;100.00;96549.63;10470989;28;20227;-59
2022/04/20 05:07:46;;;;;;;39.50;20.57;;;;;;;-1.02;100.00;96547.63;10462112;28;20274;-55
2022/04/20 05:12:50;;;;;;;15.40;10.53;;;;;;;-0.90;100.00;96552.06;10480270;28;20252;-54
2022/04/20 05:17:50;;;;;;;16.20;11.00;;;;;;;-0.81;100.00;96550.69;10461135;28;20637;-57
2022/04/20 05:22:51;;;;;;;24.33;15.33;;;;;;;-0.70;100.00;96542.31;10453912;28;20212;-55
2022/04/20 05:27:52;;;;;;;20.80;13.37;;;;;;;-0.51;100.00;96548.03;10453240;28;20184;-57
2022/04/20 05:32:58;;;;;;;16.27;11.07;;;;;;;-0.36;100.00;96556.59;10453323;28;20725;-56
2022/04/20 05:43:38;;;;;;;12.93;8.77;;;;;;;0.00;100.00;96547.53;10456941;28;20184;-58
2022/04/20 05:48:39;;;;;;;13.77;9.80;;;;;;;0.16;100.00;96555.94;10452956;28;20188;-56
2022/04/20 05:53:43;;;;;;;14.00;9.40;;;;;;;0.30;100.00;96549.09;10452651;28;20247;-59
2022/04/20 05:58:46;;;;;;;12.40;8.63;;;;;;;0.49;100.00;96556.47;10453228;28;20561;-56
2022/04/20 06:03:48;;;;;;;10.57;8.00;;;;;;;0.63;100.00;96556.44;10435914;28;20182;-58
2022/04/20 06:09:00;;;;;;;15.90;10.70;;;;;;;0.97;100.00;96556.81;10450802;28;20239;-55
2022/04/20 06:14:24;;;;;;;16.03;10.53;;;;;;;1.04;100.00;96554.66;10452013;28;20223;-59
2022/04/20 06:19:29;;;;;;;15.03;8.93;;;;;;;1.23;100.00;96546.53;10468449;28;20225;-57
2022/04/20 06:24:43;;;;;;;10.30;8.00;;;;;;;1.37;100.00;96545.59;10459491;28;20188;-52
2022/04/20 06:30:19;;;;;;;11.03;7.97;;;;;;;1.47;100.00;96541.47;10377608;28;20670;-57
2022/04/20 06:35:38;;;;;;;13.67;10.40;;;;;;;1.48;100.00;96543.09;10463496;28;20191;-55
2022/04/20 06:40:48;;;;;;;13.53;9.40;;;;;;;1.75;100.00;96534.41;10450957;28;20209;-58
2022/04/20 06:46:08;;;;;;;13.60;9.60;;;;;;;1.98;100.00;96534.56;10451125;28;20251;-57
2022/04/20 06:51:16;;;;;;;14.10;9.70;;;;;;;2.06;100.00;96530.50;10462370;28;20234;-58
2022/04/20 07:01:44;;;;;;;13.60;9.03;;;;;;;2.57;100.00;96531.22;10488441;28;20209;-55
2022/04/20 07:07:05;;;;;;;12.33;9.23;;;;;;;2.97;100.00;96518.78;10489747;28;20324;-55
2022/04/20 07:12:17;;;;;;;15.00;8.33;;;;;;;3.24;100.00;96517.66;10484619;28;20234;-55
2022/04/20 07:17:18;;;;;;;11.07;8.93;;;;;;;3.43;100.00;96509.31;10473315;28;20271;-54
2022/04/20 07:22:28;;;;;;;10.27;8.33;;;;;;;3.94;98.63;96497.63;10493704;28;20269;-57
2022/04/20 07:27:40;;;;;;;10.67;8.27;;;;;;;4.22;94.43;96478.09;10500677;28;20187;-58
2022/04/20 07:32:59;;;;;;;15.20;10.10;;;;;;;4.50;91.99;96468.09;10490843;28;20310;-57
2022/04/20 07:38:29;;;;;;;12.63;10.20;;;;;;;4.76;92.24;96491.09;10490079;28;20245;-55
2022/04/20 07:43:49;;;;;;;13.13;9.87;;;;;;;5.10;87.27;96449.34;10473481;28;20191;-58
2022/04/20 07:54:50;;;;;;;15.00;10.10;;;;;;;5.54;83.47;96422.22;10472412;28;20224;-59
2022/04/20 08:00:02;;;;;;;12.13;9.47;;;;;;;5.98;80.64;96397.72;10479684;28;20216;-58
2022/04/20 08:05:21;;;;;;;13.47;8.20;;;;;;;5.77;76.18;96348.41;10443328;28;20658;-59
2022/04/20 08:10:21;;;;;;;12.33;7.80;;;;;;;5.06;77.13;96375.31;10460658;28;20227;-56
2022/04/20 08:15:22;;;;;;;9.77;7.80;;;;;;;5.20;76.92;96371.53;10489525;28;20183;-53
2022/04/20 08:20:25;;;;;;;10.63;8.60;;;;;;;5.45;77.73;96381.44;10488504;28;20214;-52
2022/04/20 08:25:27;;;;;;;11.70;8.50;;;;;;;5.16;76.88;96379.56;10488491;28;20250;-58
2022/04/20 08:30:28;;;;;;;10.83;8.10;;;;;;;5.95;74.71;96345.94;10473404;28;20253;-54
2022/04/20 08:35:28;;;;;;;9.57;7.63;;;;;;;6.42;71.67;96315.69;10472753;28;20246;-51
2022/04/20 08:40:29;;;;;;;9.77;7.10;;;;;;;6.36;71.11;96295.41;10449125;28;20208;-58
2022/04/20 08:45:30;;;;;;;10.23;8.03;;;;;;;6.21;72.95;96333.25;10452162;28;20211;-54
2022/04/20 08:50:31;;;;;;;11.80;9.20;;;;;;;6.64;70.53;96305.88;10465991;28;20302;-58
2022/04/20 08:55:31;;;;;;;10.37;8.57;;;;;;;6.63;71.81;96325.09;10461430;28;20272;-53
2022/04/20 09:00:32;;;;;;;14.37;8.83;;;;;;;6.78;72.90;96351.47;10450791;28;20279;-58
2022/04/20 09:05:34;;;;;;;12.53;9.00;;;;;;;6.56;71.40;96326.59;10471886;28;20340;-55
2022/04/20 09:10:36;;;;;;;10.80;8.20;;;;;;;6.38;73.33;96350.72;10489851;28;20334;-57
2022/04/20 09:15:37;;;;;;;12.87;8.40;;;;;;;6.28;73.08;96336.09;10490478;28;20643;-54
2022/04/20 09:20:38;;;;;;;8.53;6.17;;;;;;;6.60;68.05;96242.91;10490344;28;20295;-52
2022/04/20 09:25:41;;;;;;;10.80;7.73;;;;;;;7.03;69.07;96279.72;10490745;28;20715;-59
2022/04/20 09:30:42;;;;;;;9.37;7.40;;;;;;;6.82;68.64;96272.13;10468102;28;20223;-55
2022/04/20 09:35:45;;;;;;;9.93;7.30;;;;;;;6.57;69.88;96300.44;10473214;28;20207;-54
2022/04/20 09:40:46;;;;;;;10.40;7.40;;;;;;;6.76;70.44;96325.56;10473662;28;20246;-56
2022/04/20 09:46:04;;;;;;;8.57;6.93;;;;;;;6.45;71.29;96351.00;10490388;28;20306;-57
2022/04/20 09:51:09;;;;;;;11.63;8.13;;;;;;;7.04;69.30;96311.78;10489826;28;20276;-57
2022/04/20 09:56:24;;;;;;;12.80;8.77;;;;;;;6.81;70.00;96330.34;10488859;28;20192;-60
2022/04/20 10:01:34;;;;;;;10.47;8.07;;;;;;;7.35;69.69;96321.88;10489754;28;20280;-59
2022/04/20 10:06:36;;;;;;;11.70;7.87;;;;;;;7.42;69.30;96322.97;10484992;28;20191;-57
2022/04/20 10:12:09;;;;;;;12.80;8.00;;;;;;;7.26;68.85;96310.56;10488765;28;20258;-57
2022/04/20 10:17:13;;;;;;;10.87;7.33;;;;;;;7.49;68.51;96296.16;10428610;28;20208;-51
2022/04/20 10:22:17;;;;;;;9.53;7.30;;;;;;;7.30;69.56;96317.13;10486267;28;20218;-55
2022/04/20 10:27:25;;;;;;;9.00;7.13;;;;;;;7.66;67.90;96280.69;10488234;28;20191;-53
2022/04/20 10:32:26;;;;;;;8.40;6.57;;;;;;;7.71;65.70;96236.72;10469215;28;20222;-52
2022/04/20 10:37:36;;;;;;;12.70;5.90;;;;;;;7.76;63.45;96184.94;10454268;28;20183;-53
2022/04/20 10:42:44;;;;;;;11.00;6.50;;;;;;;7.60;65.35;96226.53;10486796;28;20700;-53
2022/04/20 10:47:55;;;;;;;11.80;6.67;;;;;;;7.79;65.60;96236.78;10487518;28;20683;-58
2022/04/20 10:53:04;;;;;;;8.60;5.53;;;;;;;8.06;64.69;96218.56;10486967;28;20720;-57
2022/04/20 10:58:21;;;;;;;11.40;5.67;;;;;;;7.95;62.85;96177.91;10485140;28;20194;-58
2022/04/20 11:03:21;;;;;;;9.80;5.43;;;;;;;7.82;63.65;96207.78;10487160;28;20360;-58
2022/04/20 11:08:23;;;;;;;10.57;5.40;;;;;;;7.57;64.26;96209.41;10471551;28;20267;-56
2022/04/20 11:19:03;;;;;;;9.03;5.70;;;;;;;7.56;67.41;96292.97;10485568;28;20203;-59
2022/04/20 11:24:25;;;;;;;15.20;6.17;;;;;;;7.67;69.61;96322.25;10445533;28;20204;-59
2022/04/20 11:29:27;;;;;;;14.63;6.87;;;;;;;7.63;71.84;96372.22;10452792;28;20203;-58
2022/04/20 11:34:30;;;;;;;8.33;6.87;;;;;;;6.85;77.48;96445.47;10486567;28;20225;-57
2022/04/20 11:39:31;;;;;;;15.87;10.00;;;;;;;6.96;82.67;96477.38;10487035;28;20207;-54
2022/04/20 11:44:46;;;;;;;11.10;8.07;;;;;;;6.88;88.43;96466.03;10496715;28;20192;-58
2022/04/20 11:49:58;;;;;;;9.60;6.93;;;;;;;6.34;91.97;96456.06;10464129;28;20794;-58
2022/04/20 11:55:18;;;;;;;8.27;7.27;;;;;;;6.16;100.00;96455.09;10507057;28;20187;-56
2022/04/20 12:00:21;;;;;;;12.03;8.23;;;;;;;5.91;100.00;96446.78;10490290;28;20215;-58
2022/04/20 12:05:22;;;;;;;12.13;8.80;;;;;;;5.86;100.00;96447.19;10477401;28;20282;-55
2022/04/20 12:10:23;;;;;;;13.57;8.77;;;;;;;6.38;100.00;96444.38;10490455;28;20310;-54
2022/04/20 12:15:24;;;;;;;10.27;7.83;;;;;;;6.70;100.00;96439.88;10492448;28;20203;-54
2022/04/20 12:20:27;;;;;;;12.00;9.47;;;;;;;6.47;100.00;96429.75;10492109;28;20702;-57
2022/04/20 12:25:28;;;;;;;16.07;9.00;;;;;;;6.92;100.00;96423.94;10493953;28;20211;-58
2022/04/20 12:30:44;;;;;;;12.57;9.70;;;;;;;7.11;100.00;96417.84;10487322;28;20207;-55
2022/04/20 12:35:57;;;;;;;12.43;9.10;;;;;;;7.14;100.00;96417.56;10493564;28;20240;-56
2022/04/20 12:41:05;;;;;;;13.80;8.83;;;;;;;7.37;100.00;96411.19;10483506;28;20209;-56
2022/04/20 12:46:13;;;;;;;12.40;9.40;;;;;;;7.42;100.00;96412.38;10453611;28;20214;-54
2022/04/20 12:51:21;;;;;;;10.77;9.07;;;;;;;6.92;100.00;96391.84;10469721;28;20694;-57
2022/04/20 13:06:59;;;;;;;9.37;8.37;;;;;;;6.84;100.00;96384.75;10469703;28;20953;-55
2022/04/20 13:12:00;;;;;;;16.07;9.60;;;;;;;6.66;100.00;96392.47;10470321;28;20231;-54
2022/04/20 13:17:01;;;;;;;10.43;8.57;;;;;;;6.70;100.00;96380.81;10464619;28;20192;-56
2022/04/20 13:22:01;;;;;;;10.90;9.07;;;;;;;6.18;100.00;96385.53;10467018;28;20199;-59
2022/04/20 13:32:20;;;;;;;9.97;8.17;;;;;;;6.05;100.00;96384.03;10458460;28;20218;-59
2022/04/20 13:37:21;;;;;;;11.27;8.07;;;;;;;6.16;100.00;96387.47;10469303;28;20199;-58
2022/04/20 13:48:38;;;;;;;10.90;8.53;;;;;;;6.04;100.00;96376.38;10461046;28;20202;-56
2022/04/20 13:53:38;;;;;;;11.77;9.20;;;;;;;5.77;100.00;96370.00;10479707;28;20234;-60
2022/04/20 13:58:38;;;;;;;12.07;9.47;;;;;;;5.72;100.00;96370.41;10465802;28;20686;-57
2022/04/20 14:03:39;;;;;;;17.90;10.97;;;;;;;5.93;100.00;96366.88;10465815;28;20678;-57
2022/04/20 14:08:40;;;;;;;15.90;9.43;;;;;;;6.15;100.00;96359.78;10463205;28;20192;-59
2022/04/20 14:13:41;;;;;;;10.87;8.40;;;;;;;6.11;100.00;96364.47;10456271;28;20219;-56
2022/04/20 14:18:42;;;;;;;12.73;9.27;;;;;;;6.09;100.00;96374.16;10451048;28;20666;-59
2022/04/20 14:23:42;;;;;;;13.23;8.80;;;;;;;6.07;100.00;96371.69;10467915;28;20187;-58
2022/04/20 14:34:15;;;;;;;10.50;8.00;;;;;;;5.87;100.00;96364.81;10444307;28;20246;-59
2022/04/20 14:39:16;;;;;;;11.00;8.43;;;;;;;5.62;100.00;96358.34;10481314;28;20303;-59
2022/04/20 14:44:16;;;;;;;9.33;7.87;;;;;;;5.32;100.00;96352.28;10466117;28;20187;-56
2022/04/20 14:49:16;;;;;;;10.43;9.00;;;;;;;5.36;100.00;96354.50;10468243;28;20236;-57
2022/04/20 14:54:17;;;;;;;10.73;8.73;;;;;;;5.43;100.00;96349.56;10463512;28;20302;-58
2022/04/20 14:59:17;;;;;;;13.43;8.90;;;;;;;5.57;100.00;96347.56;10466882;28;20262;-55
2022/04/20 15:04:18;;;;;;;13.43;8.73;;;;;;;5.55;100.00;96339.91;10452543;28;20195;-57
2022/04/20 15:09:18;;;;;;;14.27;9.53;;;;;;;5.51;100.00;96333.31;10446848;28;20603;-56
2022/04/20 15:14:19;;;;;;;13.47;9.93;;;;;;;5.46;100.00;96335.50;10446170;28;20353;-56
2022/04/20 15:19:21;;;;;;;11.17;8.80;;;;;;;5.42;100.00;96334.13;10451507;28;20208;-59
2022/04/20 15:24:21;;;;;;;15.93;9.20;;;;;;;5.49;100.00;96325.66;10454985;28;20234;-58
2022/04/20 15:29:21;;;;;;;11.50;7.97;;;;;;;5.46;100.00;96332.91;10483654;28;20305;-58
2022/04/20 15:34:23;;;;;;;18.30;11.33;;;;;;;5.32;100.00;96336.69;10492942;28;20578;-58
2022/04/20 15:39:23;;;;;;;13.30;9.53;;;;;;;5.34;100.00;96338.22;10489697;28;20227;-59
2022/04/20 15:44:24;;;;;;;14.47;10.83;;;;;;;5.41;100.00;96332.50;10489112;28;20631;-58
2022/04/20 15:49:24;;;;;;;12.67;8.40;;;;;;;5.43;100.00;96335.78;10492773;28;20693;-56
2022/04/20 15:54:25;;;;;;;15.10;11.70;;;;;;;5.51;100.00;96335.91;10491552;28;20704;-59
2022/04/20 16:04:44;;;;;;;8.97;6.80;;;;;;;5.38;100.00;96330.16;10489753;28;20191;-57
2022/04/20 16:09:44;;;;;;;10.30;7.50;;;;;;;5.40;100.00;96334.25;10492374;28;20757;-58
2022/04/20 16:14:45;;;;;;;9.20;6.83;;;;;;;5.34;100.00;96342.56;10495293;28;20720;-59
2022/04/20 16:19:45;;;;;;;24.30;14.03;;;;;;;5.29;100.00;96334.38;10495466;28;20712;-59
2022/04/20 16:24:46;;;;;;;12.80;10.23;;;;;;;5.27;100.00;96328.50;10514926;22;20729;-58
2022/04/20 16:29:46;;;;;;;15.33;12.03;;;;;;;5.14;100.00;96326.13;10478150;28;20271;-62
2022/04/20 16:34:46;;;;;;;29.27;17.93;;;;;;;5.13;100.00;96319.28;10476707;28;20260;-60
2022/04/20 16:39:47;;;;;;;18.10;12.03;;;;;;;5.04;100.00;96328.69;10462811;28;20196;-60
2022/04/20 16:44:47;;;;;;;24.67;18.47;;;;;;;5.06;100.00;96331.97;10459455;28;20295;-59
2022/04/20 16:49:48;;;;;;;19.73;13.53;;;;;;;4.97;100.00;96327.56;10453046;28;20184;-58
2022/04/20 16:54:49;;;;;;;9.80;8.30;;;;;;;4.93;100.00;96323.59;10453841;28;20303;-58
2022/04/20 16:59:51;;;;;;;11.13;8.50;;;;;;;4.97;100.00;96332.75;10450755;28;20702;-61
2022/04/20 17:04:52;;;;;;;12.80;8.47;;;;;;;4.89;100.00;96335.19;10455740;28;20207;-58
2022/04/20 17:09:52;;;;;;;16.47;11.80;;;;;;;4.85;100.00;96324.25;10453528;28;20198;-60
2022/04/20 17:14:53;;;;;;;10.87;8.20;;;;;;;4.83;100.00;96339.13;10496208;28;20230;-57
2022/04/20 17:19:53;;;;;;;9.23;7.67;;;;;;;4.85;100.00;96334.63;10495280;28;20285;-61
2022/04/20 17:30:13;;;;;;;8.37;6.63;;;;;;;4.88;100.00;96336.97;10494458;28;20199;-56
2022/04/20 17:40:32;;;;;;;9.27;6.73;;;;;;;4.73;100.00;96338.25;10496232;28;20654;-55
2022/04/20 17:45:32;;;;;;;7.03;6.10;;;;;;;4.70;100.00;96335.91;10497476;28;20297;-57
2022/04/20 17:50:35;;;;;;;13.63;9.07;;;;;;;4.85;100.00;96337.22;10498187;28;20725;-59
2022/04/20 17:55:36;;;;;;;26.40;12.83;;;;;;;4.91;100.00;96333.28;10497506;28;20301;-57
2022/04/20 18:00:36;;;;;;;29.73;13.90;;;;;;;4.81;100.00;96334.06;10497684;28;20183;-55
2022/04/20 18:05:39;;;;;;;32.60;17.80;;;;;;;4.59;100.00;96336.81;10495416;28;20367;-55
2022/04/20 18:10:40;;;;;;;39.23;19.73;;;;;;;4.40;100.00;96328.00;10495066;28;20310;-61
2022/04/20 18:15:40;;;;;;;11.73;8.17;;;;;;;4.69;100.00;96331.69;10494915;28;20217;-61
2022/04/20 18:20:41;;;;;;;8.47;6.53;;;;;;;4.73;100.00;96326.13;10494389;28;20263;-60
2022/04/20 18:25:41;;;;;;;6.83;6.03;;;;;;;4.70;100.00;96323.78;10494162;28;20243;-61
2022/04/20 18:30:42;;;;;;;15.27;10.30;;;;;;;4.60;100.00;96328.91;10493629;28;20223;-58
2022/04/20 18:35:42;;;;;;;17.83;11.90;;;;;;;4.43;100.00;96321.72;10493946;28;20745;-59
2022/04/20 18:40:43;;;;;;;20.50;12.57;;;;;;;4.51;100.00;96326.28;10493617;28;20195;-59
2022/04/20 18:45:45;;;;;;;9.87;8.77;;;;;;;4.49;100.00;96338.53;10493156;28;20670;-61
2022/04/20 18:50:47;;;;;;;9.27;8.27;;;;;;;4.54;100.00;96332.03;10493021;28;20675;-60
2022/04/20 19:01:06;;;;;;;9.63;8.60;;;;;;;4.44;100.00;96328.53;10492989;28;20191;-60
2022/04/20 19:06:06;;;;;;;11.83;9.10;;;;;;;4.36;100.00;96331.78;10492895;28;20735;-61
2022/04/20 19:11:07;;;;;;;12.80;10.37;;;;;;;4.40;100.00;96324.59;10492699;28;20231;-60
2022/04/20 19:16:07;;;;;;;11.90;9.13;;;;;;;4.39;100.00;96321.16;10492760;28;20207;-61
2022/04/20 19:21:08;;;;;;;11.20;10.00;;;;;;;4.36;100.00;96320.59;10492975;28;20826;-58
2022/04/20 19:26:10;;;;;;;12.57;10.50;;;;;;;4.31;100.00;96310.59;10492105;28;20338;-61
2022/04/20 19:31:10;;;;;;;11.53;9.30;;;;;;;4.45;100.00;96304.25;10492302;28;20320;-54
2022/04/20 19:36:10;;;;;;;10.27;9.03;;;;;;;4.41;100.00;96297.69;10492182;28;20275;-60
2022/04/20 19:41:11;;;;;;;9.83;8.33;;;;;;;4.37;100.00;96307.50;10492454;28;20194;-57
2022/04/20 19:46:12;;;;;;;11.57;9.07;;;;;;;4.32;100.00;96311.41;10474203;28;20219;-61
2022/04/20 19:51:12;;;;;;;9.53;8.53;;;;;;;4.19;100.00;96307.25;10491948;28;20223;-55
2022/04/20 19:56:13;;;;;;;11.20;8.70;;;;;;;4.17;100.00;96306.56;10474154;28;20261;-60
2022/04/20 20:01:13;;;;;;;10.37;9.27;;;;;;;4.19;100.00;96299.47;10491748;28;20194;-57
2022/04/20 20:06:20;;;;;;;10.27;8.87;;;;;;;4.16;100.00;96296.31;10497325;28;20571;-60
2022/04/20 20:11:23;;;;;;;13.93;10.80;;;;;;;4.14;100.00;96301.63;10464226;28;20220;-55
2022/04/20 20:16:28;;;;;;;10.20;9.13;;;;;;;4.10;100.00;96292.44;10456542;28;20215;-55
2022/04/20 20:21:28;;;;;;;11.03;9.03;;;;;;;4.24;100.00;96292.16;10454293;28;20188;-56
2022/04/20 20:31:52;;;;;;;13.30;9.27;;;;;;;4.14;100.00;96298.22;10456297;28;20648;-55
2022/04/20 20:36:54;;;;;;;13.10;9.30;;;;;;;4.12;100.00;96295.75;10438909;28;20219;-56
2022/04/20 20:41:56;;;;;;;14.67;10.90;;;;;;;4.07;100.00;96290.13;10456062;28;20613;-55
2022/04/20 20:46:56;;;;;;;15.27;10.07;;;;;;;4.26;100.00;96272.09;10455350;28;20212;-58
2022/04/20 20:51:56;;;;;;;9.90;8.00;;;;;;;4.33;100.00;96268.97;10455884;28;20302;-58
2022/04/20 20:56:57;;;;;;;9.83;8.03;;;;;;;4.23;100.00;96261.97;10455591;28;20214;-54
2022/04/20 21:01:57;;;;;;;10.33;8.20;;;;;;;4.24;100.00;96261.03;10454314;28;20570;-57
2022/04/20 21:06:58;;;;;;;11.47;9.20;;;;;;;4.18;100.00;96261.56;10454168;28;20211;-54
2022/04/20 21:11:58;;;;;;;11.20;9.07;;;;;;;4.15;100.00;96260.97;10455627;28;20702;-55
2022/04/20 21:16:59;;;;;;;12.87;9.80;;;;;;;4.22;100.00;96256.91;10437428;28;20246;-55
2022/04/20 21:22:00;;;;;;;11.40;9.60;;;;;;;4.24;100.00;96255.84;10455690;28;20188;-55
2022/04/20 21:27:01;;;;;;;10.90;9.37;;;;;;;4.15;100.00;96251.44;10455045;28;20267;-55
2022/04/20 21:32:02;;;;;;;11.30;9.27;;;;;;;4.24;100.00;96252.41;10454893;28;20277;-54
2022/04/20 21:37:02;;;;;;;9.47;8.47;;;;;;;4.32;100.00;96244.84;10454736;28;20219;-55
2022/04/20 21:42:03;;;;;;;12.83;9.30;;;;;;;4.27;100.00;96245.22;10455140;28;20211;-56
2022/04/20 21:47:04;;;;;;;13.70;9.37;;;;;;;4.34;100.00;96248.09;10454332;28;20295;-55
2022/04/20 21:52:05;;;;;;;15.80;9.37;;;;;;;4.30;100.00;96249.31;10454353;28;20224;-55
2022/04/20 21:57:06;;;;;;;13.00;9.33;;;;;;;4.40;100.00;96249.38;10453956;28;20272;-54
2022/04/20 22:12:45;;;;;;;10.87;9.37;;;;;;;4.33;100.00;96243.88;10438144;28;20261;-62
2022/04/20 22:17:45;;;;;;;13.40;10.10;;;;;;;4.39;100.00;96245.94;10453255;28;20273;-60
2022/04/20 22:22:46;;;;;;;11.97;9.80;;;;;;;4.38;100.00;96246.06;10452882;28;20192;-61
2022/04/20 22:27:46;;;;;;;14.77;9.40;;;;;;;4.32;100.00;96234.47;10514970;22;20269;-56
2022/04/20 22:32:47;;;;;;;12.43;9.83;;;;;;;4.31;100.00;96240.59;10535274;28;20233;-54
2022/04/20 22:37:47;;;;;;;15.60;10.83;;;;;;;4.27;100.00;96228.81;10535199;28;20238;-58
2022/04/20 22:42:48;;;;;;;13.47;10.60;;;;;;;4.31;100.00;96230.22;10535601;28;20266;-54
2022/04/20 22:47:48;;;;;;;13.13;10.47;;;;;;;4.31;100.00;96232.00;10517319;28;20768;-57
2022/04/20 22:52:49;;;;;;;12.53;9.87;;;;;;;4.34;100.00;96226.56;10535407;28;20359;-54
2022/04/20 22:57:49;;;;;;;15.17;10.77;;;;;;;4.37;100.00;96227.09;10534935;28;20214;-56
2022/04/20 23:02:50;;;;;;;13.07;10.27;;;;;;;4.36;100.00;96243.59;10535233;28;20178;-58
2022/04/20 23:07:50;;;;;;;13.80;10.23;;;;;;;4.51;100.00;96238.09;10534629;28;20271;-58
2022/04/20 23:12:50;;;;;;;14.87;10.43;;;;;;;4.38;100.00;96235.69;10534830;28;20229;-58
2022/04/20 23:17:51;;;;;;;13.20;10.03;;;;;;;4.41;100.00;96228.50;10534699;28;20241;-55
2022/04/20 23:22:51;;;;;;;13.97;9.90;;;;;;;4.53;100.00;96236.97;10534613;28;20187;-55
2022/04/20 23:33:11;;;;;;;16.17;11.80;;;;;;;4.24;100.00;96234.25;10534073;28;20226;-55
2022/04/20 23:38:11;;;;;;;13.37;10.97;;;;;;;4.26;100.00;96222.81;10535812;28;20210;-54
2022/04/20 23:43:12;;;;;;;15.47;10.97;;;;;;;4.35;100.00;96207.44;10542302;28;20197;-53
2022/04/20 23:48:13;;;;;;;12.57;10.47;;;;;;;4.45;100.00;96208.31;10542110;28;20210;-55
2022/04/20 23:53:17;;;;;;;17.53;11.30;;;;;;;4.31;100.00;96206.88;10541856;28;20233;-57
2022/04/20 23:58:18;;;;;;;18.33;10.83;;;;;;;4.44;100.00;96214.44;10541924;28;20297;-54
